Anton Chico, New Mexico
Current Conditions -  °F | °C
As of 7:53 PM on Friday 21 Nov 2014 (Local Time) from KLVS Reporting Station
Clear Clear  
Wind Chill: 36°   Ceiling: Unl
Heat Index: 36°   Visibility: 10mi
Dew Point: 19°   Wind: 3mph
Humidity: 50%   Direction: 140°SE
Pressure: 30.04"   Gusts: NA
Location:  35.2°N, 105.14°W
Report Text: KLVS 220253Z AUTO 14003KT 10SM CLR 02/M07 A3004 RMK AO2 SLP147 T00221072 53010
Loading
Personal Weather Stations






























Interactive Weather Map New forecast layout! Learn more

10-Day Weather Forecast

Advertisements
Track Severe Weather on mobile